Archival Weather

Norman Y Mineta San Jose Intl

San Jose, California (KSJC)

Report from: Friday, February 2, 2024 5:53 PM PST
Current time: Friday, June 21, 2024 2:00 AM PDT

Current weather – Weather history – Daily summaries
Weather forecast

Present weatherLight rain
Temperature11.7°C (53.1°F)
Dew point5.6°C (42.1°F)
Winds 3 kts (1.5 m/s, 3.5 mph) West (280°)
Visibility10 mi. (16.1 km)
Clouds Few clouds 1,500 ft. (457 m)
Scattered clouds 2,300 ft. (701 m)
Ceiling: Broken clouds 4,700 ft. (1,433 m)
Altimeter29.97 in.Hg (1015 mB)
PrecipitiationTrace
Precip. events Rain began 1:39 AM
Relative humidity66 %
Density altitude-316 ft. (-96 m)
Sea-level pressure101.5 kPa (1015 mB, 29.97 in.Hg)
Remarks Automated weather observing station with precipitation discriminator
Flight conditions Visual Meteorological Conditions
Raw dataKSJC 030153Z 28003KT 10SM -RA FEW015 SCT023 BKN047 12/06 A2997 RMK AO2 RAB39 SLP149 P0000 T01170056
An error has occurred. This application may no longer respond until reloaded. Reload 🗙